Time;durP1;ratioP1;P1;durP2;ratioP2;P2;SDS_P1;SDS_P2;PMS_P1;PMS_P2;Temp;Humidity;BMP_temperature;BMP_pressure;BME280_temperature;BME280_humidity;BME280_pressure;Samples;Min_cycle;Max_cycle;Signal;HPM_P1;HPM_P2
2022/05/26 00:01:51;;;;;;;35.08;16.30;;;;;;;18.25;nan;-24325.31;5067444;28;21342;-56
2022/05/26 00:04:17;;;;;;;39.08;17.58;;;;;;;18.07;nan;-24320.28;5065866;28;20179;-56
2022/05/26 00:06:43;;;;;;;33.67;15.35;;;;;;;18.02;nan;-24318.91;5069147;28;20189;-56
2022/05/26 00:09:08;;;;;;;38.95;18.15;;;;;;;18.04;nan;-24319.59;5068393;28;20243;-56
2022/05/26 00:11:36;;;;;;;32.63;17.77;;;;;;;18.34;nan;-24327.81;5070349;28;20684;-57
2022/05/26 00:14:07;;;;;;;35.88;15.35;;;;;;;18.08;nan;-24320.56;5065409;28;20210;-57
2022/05/26 00:16:42;;;;;;;33.10;16.10;;;;;;;18.14;nan;-24322.25;5067524;28;20212;-57
2022/05/26 00:19:08;;;;;;;30.85;17.48;;;;;;;18.24;nan;-24325.03;5066705;28;20770;-56
2022/05/26 00:21:33;;;;;;;37.03;17.65;;;;;;;18.12;nan;-24321.53;5068471;28;20185;-58
2022/05/26 00:23:59;;;;;;;37.67;16.75;;;;;;;18.02;nan;-24319.03;5066612;28;20177;-57
2022/05/26 00:26:24;;;;;;;39.50;18.58;;;;;;;18.03;nan;-24319.19;5063468;28;20181;-56
2022/05/26 00:28:50;;;;;;;41.50;18.42;;;;;;;18.06;nan;-24320.00;5069022;28;20178;-57
2022/05/26 00:31:16;;;;;;;34.05;16.15;;;;;;;18.02;nan;-24319.03;5066117;28;20184;-57
2022/05/26 00:33:42;;;;;;;38.40;16.70;;;;;;;17.83;nan;-24313.75;5099960;28;20298;-56
2022/05/26 00:36:11;;;;;;;31.73;15.52;;;;;;;17.83;nan;-24313.75;5068317;28;20193;-57
2022/05/26 00:38:41;;;;;;;29.92;15.75;;;;;;;17.62;nan;-24307.88;5065892;28;20626;-57
2022/05/26 00:41:09;;;;;;;32.15;16.20;;;;;;;16.55;nan;-24278.41;5069019;28;20570;-56
2022/05/26 00:43:40;;;;;;;34.45;16.92;;;;;;;17.53;nan;-24305.34;5068767;28;20185;-57
2022/05/26 00:46:11;;;;;;;32.65;15.95;;;;;;;17.84;nan;-24313.88;5071139;28;20546;-57
2022/05/26 00:48:51;;;;;;;33.78;17.02;;;;;;;17.49;nan;-24304.25;5066201;28;20201;-57
2022/05/26 00:51:47;;;;;;;34.10;16.92;;;;;;;17.74;nan;-24311.09;5070369;28;20192;-56
2022/05/26 00:54:19;;;;;;;36.58;17.25;;;;;;;17.77;nan;-24312.06;5062823;28;20186;-56
2022/05/26 00:57:00;;;;;;;29.60;15.20;;;;;;;17.69;nan;-24309.84;5064181;28;20581;-55
2022/05/26 01:00:04;;;;;;;31.88;16.23;;;;;;;17.56;nan;-24306.34;5066581;28;20224;-57
2022/05/26 01:02:35;;;;;;;33.50;15.75;;;;;;;17.60;nan;-24307.31;5023145;28;20266;-57
2022/05/26 01:05:07;;;;;;;36.80;17.80;;;;;;;17.62;nan;-24308.00;5058919;28;20232;-57
2022/05/26 01:07:37;;;;;;;35.80;17.65;;;;;;;17.58;nan;-24306.75;5071160;28;20270;-57
2022/05/26 01:10:04;;;;;;;34.80;16.55;;;;;;;17.42;nan;-24302.44;5073195;28;20644;-57
2022/05/26 01:12:29;;;;;;;35.30;17.65;;;;;;;17.29;nan;-24298.81;5070606;28;20666;-56
2022/05/26 01:15:18;;;;;;;33.75;18.75;;;;;;;17.03;nan;-24291.69;5073463;28;20699;-56
2022/05/26 01:18:02;;;;;;;35.00;17.48;;;;;;;17.50;nan;-24304.53;5070893;28;20197;-56
2022/05/26 01:20:52;;;;;;;35.10;17.48;;;;;;;17.35;nan;-24300.47;5064935;28;20289;-57
2022/05/26 01:23:35;;;;;;;38.13;17.80;;;;;;;17.44;nan;-24302.84;5065581;28;20320;-56
2022/05/26 01:26:39;;;;;;;38.13;18.05;;;;;;;17.36;nan;-24300.63;5067070;28;20691;-56
2022/05/26 01:29:11;;;;;;;33.40;17.98;;;;;;;17.41;nan;-24302.16;5088256;28;20208;-57
2022/05/26 01:31:51;;;;;;;40.90;18.98;;;;;;;17.24;nan;-24297.41;5075960;28;20216;-56
2022/05/26 01:34:42;;;;;;;39.03;18.70;;;;;;;17.48;nan;-24303.97;5070730;28;20192;-56
2022/05/26 01:37:36;;;;;;;39.20;18.88;;;;;;;16.71;nan;-24282.88;5069355;28;20220;-56
2022/05/26 01:40:30;;;;;;;42.95;19.23;;;;;;;17.37;nan;-24300.91;5035233;28;20344;-56
2022/05/26 01:43:03;;;;;;;40.08;19.75;;;;;;;17.31;nan;-24299.38;5071895;28;20184;-57
2022/05/26 01:45:47;;;;;;;36.70;19.55;;;;;;;17.26;nan;-24297.97;5071534;28;20240;-57
2022/05/26 01:48:17;;;;;;;43.00;19.33;;;;;;;17.03;nan;-24291.53;5072685;28;20628;-56
2022/05/26 01:51:03;;;;;;;37.35;18.92;;;;;;;17.33;nan;-24299.91;5072954;28;20190;-56
2022/05/26 01:53:38;;;;;;;39.65;18.40;;;;;;;17.36;nan;-24300.75;5071676;28;20209;-57
2022/05/26 01:56:18;;;;;;;38.97;19.73;;;;;;;17.38;nan;-24301.31;5069671;28;20599;-57
2022/05/26 01:58:52;;;;;;;37.67;17.95;;;;;;;17.53;nan;-24305.50;5070458;28;20197;-57
2022/05/26 02:01:22;;;;;;;37.40;18.52;;;;;;;17.70;nan;-24310.13;5069902;28;20189;-57
2022/05/26 02:03:49;;;;;;;36.10;18.52;;;;;;;17.69;nan;-24309.84;5072325;28;20186;-57
2022/05/26 02:06:26;;;;;;;34.75;18.52;;;;;;;17.66;nan;-24309.13;5070303;28;20178;-56
2022/05/26 02:09:12;;;;;;;36.05;17.83;;;;;;;17.55;nan;-24305.91;5069651;28;20189;-57
2022/05/26 02:11:47;;;;;;;33.63;17.80;;;;;;;17.56;nan;-24306.34;5070503;28;20263;-56
2022/05/26 02:14:17;;;;;;;34.85;18.17;;;;;;;17.34;nan;-24300.19;5073218;28;20165;-56
2022/05/26 02:16:49;;;;;;;33.55;17.13;;;;;;;17.37;nan;-24300.91;5071498;28;20181;-56
2022/05/26 02:19:32;;;;;;;33.78;17.65;;;;;;;17.30;nan;-24299.09;5072763;28;20198;-57
2022/05/26 02:22:17;;;;;;;36.67;19.42;;;;;;;17.21;nan;-24296.56;5071637;28;20185;-56
2022/05/26 02:24:51;;;;;;;34.60;17.98;;;;;;;16.76;nan;-24284.28;5065320;28;20622;-57
2022/05/26 02:27:17;;;;;;;32.15;17.73;;;;;;;17.38;nan;-24301.31;5070013;28;20267;-56
2022/05/26 02:29:52;;;;;;;34.33;17.98;;;;;;;17.39;nan;-24301.59;5072337;28;20276;-57
2022/05/26 02:32:28;;;;;;;34.60;18.13;;;;;;;17.37;nan;-24301.03;5068105;28;20190;-56
2022/05/26 02:34:57;;;;;;;37.72;17.23;;;;;;;17.04;nan;-24291.97;5068560;28;20185;-57
2022/05/26 02:37:24;;;;;;;38.40;17.38;;;;;;;16.97;nan;-24289.88;5070417;28;20203;-57
2022/05/26 02:39:50;;;;;;;36.30;19.63;;;;;;;16.95;nan;-24289.44;5069174;28;20322;-56
2022/05/26 02:42:16;;;;;;;39.88;18.35;;;;;;;17.15;nan;-24294.91;5074307;28;20211;-57
2022/05/26 02:44:43;;;;;;;33.90;19.05;;;;;;;17.12;nan;-24294.06;5068628;28;20190;-57
2022/05/26 02:47:17;;;;;;;40.50;19.08;;;;;;;17.06;nan;-24292.53;5069986;28;20613;-57
2022/05/26 02:50:11;;;;;;;33.38;17.63;;;;;;;17.03;nan;-24291.69;5068728;28;20653;-57
2022/05/26 02:52:58;;;;;;;36.92;18.45;;;;;;;17.08;nan;-24293.09;5043298;28;20201;-57
2022/05/26 02:55:53;;;;;;;34.03;18.75;;;;;;;17.01;nan;-24291.13;5074828;28;20315;-57
2022/05/26 02:58:36;;;;;;;31.05;16.42;;;;;;;17.14;nan;-24294.63;5074359;28;20345;-57
2022/05/26 03:01:20;;;;;;;31.30;16.90;;;;;;;14.72;nan;-24227.75;5072971;28;20177;-57
2022/05/26 03:03:50;;;;;;;38.15;17.83;;;;;;;17.20;nan;-24296.44;5078810;28;20556;-57
2022/05/26 03:06:41;;;;;;;34.58;17.20;;;;;;;17.08;nan;-24292.94;5069741;28;20208;-56
2022/05/26 03:09:08;;;;;;;32.55;18.50;;;;;;;16.89;nan;-24287.63;5068024;28;20193;-56
2022/05/26 03:11:49;;;;;;;34.85;18.00;;;;;;;16.90;nan;-24287.91;5074901;28;20215;-57
2022/05/26 03:14:16;;;;;;;31.92;17.38;;;;;;;16.97;nan;-24290.00;5066023;28;20181;-57
2022/05/26 03:16:42;;;;;;;35.03;17.95;;;;;;;17.04;nan;-24291.81;5072584;28;20263;-57
2022/05/26 03:19:08;;;;;;;32.83;16.83;;;;;;;17.10;nan;-24293.63;5071965;28;20348;-57
2022/05/26 03:21:33;;;;;;;32.97;16.98;;;;;;;17.28;nan;-24298.53;5069318;28;20185;-57
2022/05/26 03:23:59;;;;;;;31.88;16.40;;;;;;;17.46;nan;-24303.56;5066664;28;20634;-57
2022/05/26 03:26:25;;;;;;;34.90;17.77;;;;;;;17.49;nan;-24304.38;5065164;28;20914;-56
2022/05/26 03:28:50;;;;;;;41.95;19.00;;;;;;;17.70;nan;-24309.97;5070256;28;20649;-58
2022/05/26 03:31:15;;;;;;;34.45;17.13;;;;;;;17.97;nan;-24317.63;5068593;28;20185;-57
2022/05/26 03:41:53;;;;;;;32.47;16.25;;;;;;;19.80;nan;-24367.91;5066355;28;20192;-57
2022/05/26 03:44:20;;;;;;;31.48;15.60;;;;;;;20.09;nan;-24375.81;5068636;28;20274;-57
2022/05/26 03:46:48;;;;;;;33.72;16.05;;;;;;;20.89;nan;-24397.91;5070323;28;20283;-56
2022/05/26 03:49:13;;;;;;;28.33;15.63;;;;;;;21.15;nan;-24404.97;5067409;28;20188;-58
2022/05/26 03:51:39;;;;;;;26.65;15.45;;;;;;;21.87;nan;-24424.78;5069882;28;20288;-57
2022/05/26 03:54:08;;;;;;;29.17;15.30;;;;;;;22.26;nan;-24435.31;5070839;28;20688;-57
2022/05/26 03:56:33;;;;;;;29.65;14.88;;;;;;;22.56;nan;-24443.47;5069751;28;20209;-56
2022/05/26 03:58:58;;;;;;;29.50;14.85;;;;;;;22.97;nan;-24454.66;5067070;28;20288;-57
2022/05/26 04:01:24;;;;;;;26.98;15.43;;;;;;;23.42;nan;-24467.09;5070923;28;20190;-56
2022/05/26 04:03:50;;;;;;;33.22;15.65;;;;;;;23.80;nan;-24477.31;5068470;28;20189;-57
2022/05/26 04:06:16;;;;;;;26.92;15.20;;;;;;;23.78;nan;-24477.03;5073537;28;20178;-58
2022/05/26 04:08:41;;;;;;;29.40;14.23;;;;;;;24.59;nan;-24498.97;5062593;28;20682;-58
2022/05/26 04:11:07;;;;;;;24.27;13.75;;;;;;;24.92;nan;-24508.06;5064095;28;20178;-58
2022/05/26 04:13:32;;;;;;;25.77;14.15;;;;;;;25.53;nan;-24524.59;5067131;28;20180;-59
2022/05/26 04:15:58;;;;;;;25.77;13.20;;;;;;;26.04;nan;-24538.47;5068276;28;20247;-60
2022/05/26 04:18:23;;;;;;;25.38;14.20;;;;;;;26.01;nan;-24537.66;5067702;28;20212;-59
2022/05/26 04:20:49;;;;;;;24.58;13.38;;;;;;;26.53;nan;-24551.81;5076881;28;20182;-58
2022/05/26 04:23:15;;;;;;;25.92;14.15;;;;;;;21.73;nan;-24420.91;5075051;28;20185;-58
2022/05/26 04:25:40;;;;;;;27.98;14.60;;;;;;;27.10;nan;-24567.31;5070436;28;20599;-58
2022/05/26 04:28:06;;;;;;;24.98;13.27;;;;;;;27.59;nan;-24580.47;5072978;28;20537;-59
2022/05/26 04:30:31;;;;;;;25.55;13.40;;;;;;;28.09;nan;-24594.16;5072753;28;20185;-58
2022/05/26 04:32:57;;;;;;;23.27;13.65;;;;;;;28.12;nan;-24594.84;5070175;28;20204;-58
2022/05/26 04:35:23;;;;;;;24.25;13.43;;;;;;;28.32;nan;-24600.19;5073245;28;20659;-58
2022/05/26 04:37:49;;;;;;;25.92;14.02;;;;;;;27.96;nan;-24590.47;5071689;28;20559;-58
2022/05/26 04:40:15;;;;;;;25.17;13.35;;;;;;;27.63;nan;-24581.56;5072471;28;20697;-61
2022/05/26 04:42:40;;;;;;;23.17;12.50;;;;;;;27.90;nan;-24588.81;5068631;28;20613;-58
2022/05/26 04:45:08;;;;;;;22.48;13.70;;;;;;;28.60;nan;-24607.72;5073140;28;20200;-58
2022/05/26 04:47:34;;;;;;;18.70;12.32;;;;;;;28.68;nan;-24610.03;5072880;28;20239;-58
2022/05/26 04:49:59;;;;;;;26.02;13.55;;;;;;;28.78;nan;-24612.78;5072661;28;20696;-59
2022/05/26 04:52:25;;;;;;;27.10;14.15;;;;;;;29.02;nan;-24619.06;5074876;28;20188;-58
2022/05/26 04:54:54;;;;;;;23.45;12.32;;;;;;;29.05;nan;-24619.88;5074417;28;20229;-58
2022/05/26 04:57:23;;;;;;;21.23;12.82;;;;;;;29.05;nan;-24619.88;5076770;28;20667;-58
2022/05/26 04:59:50;;;;;;;24.60;12.95;;;;;;;28.49;nan;-24604.84;5073031;28;20312;-57
2022/05/26 05:02:18;;;;;;;25.85;14.30;;;;;;;28.24;nan;-24598.13;5076421;28;20184;-58
2022/05/26 05:04:46;;;;;;;25.83;14.15;;;;;;;28.14;nan;-24595.25;5073094;28;20190;-57
2022/05/26 05:07:12;;;;;;;22.88;13.45;;;;;;;27.64;nan;-24581.84;5076856;28;20169;-57
2022/05/26 05:09:39;;;;;;;23.00;13.55;;;;;;;26.86;nan;-24560.72;5080514;28;20634;-57
2022/05/26 05:12:06;;;;;;;27.45;14.60;;;;;;;26.46;nan;-24549.88;5077794;28;20262;-58
2022/05/26 05:14:42;;;;;;;24.35;14.00;;;;;;;26.55;nan;-24552.22;5074440;28;20182;-59
2022/05/26 05:17:08;;;;;;;25.75;14.35;;;;;;;26.28;nan;-24545.06;5079475;28;20184;-59
2022/05/26 05:19:34;;;;;;;29.48;15.20;;;;;;;25.90;nan;-24534.75;5076281;28;20198;-59
2022/05/26 05:22:16;;;;;;;22.85;13.68;;;;;;;25.73;nan;-24530.09;5073701;28;20242;-58
2022/05/26 05:24:58;;;;;;;29.95;14.10;;;;;;;25.67;nan;-24528.44;5073949;28;20182;-59
2022/05/26 05:27:33;;;;;;;27.08;14.25;;;;;;;25.70;nan;-24529.13;5073797;28;20558;-57
2022/05/26 05:30:06;;;;;;;27.45;15.55;;;;;;;25.43;nan;-24521.97;5073851;28;20269;-57
2022/05/26 05:33:07;;;;;;;25.50;14.88;;;;;;;25.50;nan;-24523.75;5073603;28;20178;-60
2022/05/26 05:35:46;;;;;;;21.17;13.32;;;;;;;25.33;nan;-24519.22;5073526;28;20162;-57
2022/05/26 05:38:13;;;;;;;23.65;13.27;;;;;;;24.96;nan;-24509.03;5073964;28;20243;-57
2022/05/26 05:40:38;;;;;;;23.80;12.93;;;;;;;24.67;nan;-24501.19;5074204;28;20214;-57
2022/05/26 05:43:04;;;;;;;24.80;13.13;;;;;;;24.51;nan;-24496.91;5072677;28;20224;-57
2022/05/26 05:45:30;;;;;;;25.30;11.88;;;;;;;24.13;nan;-24486.44;5073832;28;20599;-57
2022/05/26 05:47:56;;;;;;;22.65;12.80;;;;;;;24.10;nan;-24485.59;5073690;28;20205;-58
2022/05/26 05:50:21;;;;;;;22.67;12.23;;;;;;;23.75;nan;-24476.22;5072328;28;20212;-58
2022/05/26 05:52:47;;;;;;;21.27;11.70;;;;;;;24.03;nan;-24483.66;5073095;28;20178;-58
2022/05/26 05:55:13;;;;;;;21.20;12.13;;;;;;;23.78;nan;-24476.91;5072246;28;20355;-58
2022/05/26 05:57:38;;;;;;;20.45;11.15;;;;;;;24.16;nan;-24487.25;5073757;28;20189;-58
2022/05/26 06:00:06;;;;;;;23.92;13.18;;;;;;;23.90;nan;-24480.09;5073308;28;20206;-58
2022/05/26 06:02:32;;;;;;;23.50;12.05;;;;;;;24.35;nan;-24492.50;5072977;28;20655;-58
2022/05/26 06:04:57;;;;;;;21.90;12.18;;;;;;;24.25;nan;-24489.59;5073167;28;20170;-58
2022/05/26 06:07:23;;;;;;;20.67;11.55;;;;;;;24.59;nan;-24498.97;5073105;28;20536;-58
2022/05/26 06:09:50;;;;;;;21.88;12.00;;;;;;;24.84;nan;-24505.88;5073134;28;20614;-58
2022/05/26 06:12:16;;;;;;;18.88;11.43;;;;;;;24.51;nan;-24496.91;5072492;28;20262;-57
2022/05/26 06:14:42;;;;;;;18.73;11.85;;;;;;;25.08;nan;-24512.34;5072827;28;20641;-57
2022/05/26 06:17:08;;;;;;;19.15;11.65;;;;;;;25.38;nan;-24520.59;5071867;28;20178;-58
2022/05/26 06:19:35;;;;;;;20.17;11.27;;;;;;;25.61;nan;-24526.78;5073112;28;20202;-58
2022/05/26 06:22:16;;;;;;;20.35;11.93;;;;;;;25.61;nan;-24526.66;5078736;28;20177;-58
2022/05/26 06:24:41;;;;;;;18.88;10.07;;;;;;;26.21;nan;-24543.16;5075953;28;20251;-57
2022/05/26 06:29:55;;;;;;;22.13;11.13;;;;;;;26.62;nan;-24554.28;5072975;28;20270;-57
2022/05/26 06:37:50;;;;;;;17.00;9.45;;;;;;;26.97;nan;-24563.75;5072637;28;20260;-58
2022/05/26 06:40:16;;;;;;;14.50;8.35;;;;;;;26.58;nan;-24553.19;5073899;28;20669;-57
2022/05/26 06:42:47;;;;;;;14.52;8.07;;;;;;;26.24;nan;-24543.84;5073565;28;20178;-57
2022/05/26 06:45:18;;;;;;;16.27;8.73;;;;;;;26.65;nan;-24555.09;5073402;28;20182;-58
2022/05/26 06:47:44;;;;;;;13.88;7.88;;;;;;;26.46;nan;-24549.88;5073417;28;20174;-58
2022/05/26 06:50:10;;;;;;;11.38;7.00;;;;;;;26.96;nan;-24563.47;5073291;28;20178;-58
2022/05/26 06:52:36;;;;;;;11.85;6.93;;;;;;;26.96;nan;-24563.47;5073069;28;20174;-59
2022/05/26 06:55:05;;;;;;;11.68;7.38;;;;;;;27.05;nan;-24565.81;5072708;28;20662;-58
2022/05/26 06:57:30;;;;;;;13.35;7.47;;;;;;;27.28;nan;-24571.97;5071231;28;20173;-58
2022/05/26 06:59:57;;;;;;;11.88;6.88;;;;;;;26.94;nan;-24562.78;5071535;28;20646;-57
2022/05/26 07:02:24;;;;;;;10.57;5.70;;;;;;;27.07;nan;-24566.47;5072877;28;20249;-58
2022/05/26 07:04:50;;;;;;;10.73;5.85;;;;;;;26.71;nan;-24556.75;5072301;28;20177;-58
2022/05/26 07:07:16;;;;;;;8.82;5.43;;;;;;;27.40;nan;-24575.41;5072968;28;20236;-57
2022/05/26 07:09:42;;;;;;;12.57;6.15;;;;;;;27.22;nan;-24570.47;5073093;28;20169;-57
2022/05/26 07:12:08;;;;;;;7.88;5.30;;;;;;;27.29;nan;-24572.25;5071141;28;20538;-58
2022/05/26 07:14:34;;;;;;;8.60;4.65;;;;;;;27.23;nan;-24570.88;5072867;28;20236;-57
2022/05/26 07:16:59;;;;;;;9.40;5.38;;;;;;;27.44;nan;-24576.34;5072579;28;20174;-57
2022/05/26 07:19:25;;;;;;;7.93;4.85;;;;;;;27.54;nan;-24579.09;5072593;28;20260;-58
2022/05/26 07:21:51;;;;;;;9.13;5.15;;;;;;;27.62;nan;-24581.44;5078295;28;20181;-57
2022/05/26 07:24:21;;;;;;;10.13;5.00;;;;;;;27.67;nan;-24582.81;5077295;28;20610;-58
2022/05/26 07:26:47;;;;;;;8.80;4.97;;;;;;;27.61;nan;-24581.00;5078184;28;20181;-57
2022/05/26 07:29:15;;;;;;;10.73;5.50;;;;;;;27.97;nan;-24590.88;5076841;28;20186;-57
2022/05/26 07:31:41;;;;;;;8.73;5.05;;;;;;;27.94;nan;-24589.91;5077652;28;20682;-58
2022/05/26 07:34:07;;;;;;;19.08;6.03;;;;;;;27.88;nan;-24588.41;5075361;28;20177;-58
2022/05/26 07:42:16;;;;;;;9.27;5.93;;;;;;;27.73;nan;-24584.31;5071927;28;20238;-57
2022/05/26 07:44:44;;;;;;;11.48;6.20;;;;;;;28.29;nan;-24599.38;5075698;28;20262;-57
2022/05/26 07:47:10;;;;;;;15.52;6.35;;;;;;;28.44;nan;-24603.47;5071956;28;20182;-57
2022/05/26 07:49:39;;;;;;;12.50;7.18;;;;;;;28.28;nan;-24599.09;5071883;28;20196;-57
2022/05/26 07:52:05;;;;;;;13.52;7.30;;;;;;;28.68;nan;-24610.03;5076874;28;20261;-58
2022/05/26 07:54:30;;;;;;;9.60;5.55;;;;;;;28.82;nan;-24613.72;5077776;28;20430;-58
2022/05/26 07:56:57;;;;;;;8.05;4.88;;;;;;;28.87;nan;-24615.09;5076751;28;20189;-58
2022/05/26 07:59:23;;;;;;;9.82;5.10;;;;;;;29.20;nan;-24623.97;5074312;28;20212;-58
2022/05/26 08:01:49;;;;;;;9.98;5.13;;;;;;;29.20;nan;-24623.97;5073188;28;20181;-57
2022/05/26 08:04:15;;;;;;;6.72;4.65;;;;;;;29.20;nan;-24624.13;5075946;28;20174;-58
2022/05/26 08:06:46;;;;;;;9.20;5.38;;;;;;;29.11;nan;-24621.53;5072111;28;20208;-58
2022/05/26 08:09:16;;;;;;;7.15;5.05;;;;;;;29.56;nan;-24633.66;5071955;28;20679;-58
2022/05/26 08:11:41;;;;;;;11.07;5.82;;;;;;;29.57;nan;-24633.94;5071679;28;20336;-58
2022/05/26 08:14:07;;;;;;;7.10;4.47;;;;;;;29.23;nan;-24624.78;5071970;28;20248;-58
2022/05/26 08:16:34;;;;;;;9.52;5.03;;;;;;;29.49;nan;-24631.91;5072028;28;20215;-57
2022/05/26 08:18:59;;;;;;;11.80;4.95;;;;;;;29.24;nan;-24625.06;5071693;28;20637;-59
2022/05/26 08:21:25;;;;;;;9.73;4.88;;;;;;;29.38;nan;-24628.91;5074665;28;20177;-58
2022/05/26 08:23:52;;;;;;;8.13;4.43;;;;;;;29.94;nan;-24643.91;5071808;28;20169;-57
2022/05/26 08:26:17;;;;;;;7.43;4.32;;;;;;;30.12;nan;-24648.94;5071625;28;20293;-58
2022/05/26 08:28:43;;;;;;;6.78;4.47;;;;;;;30.01;nan;-24645.81;5072302;28;20264;-58
2022/05/26 08:31:10;;;;;;;7.13;4.80;;;;;;;29.89;nan;-24642.53;5071644;28;20265;-57
2022/05/26 08:33:37;;;;;;;8.10;4.53;;;;;;;30.14;nan;-24649.50;5071953;28;20188;-58
2022/05/26 08:36:09;;;;;;;13.63;5.03;;;;;;;30.12;nan;-24648.94;5071506;28;20181;-56
2022/05/26 08:38:36;;;;;;;9.82;4.45;;;;;;;30.25;nan;-24652.34;5071216;28;20200;-56
2022/05/26 08:41:03;;;;;;;8.40;4.70;;;;;;;30.44;nan;-24657.53;5074477;28;20184;-57
2022/05/26 08:43:39;;;;;;;6.55;4.03;;;;;;;30.08;nan;-24647.72;5075691;28;20180;-57
2022/05/26 08:46:13;;;;;;;8.15;3.90;;;;;;;30.04;nan;-24646.78;5075465;28;20169;-57
2022/05/26 08:48:59;;;;;;;10.38;4.03;;;;;;;30.26;nan;-24652.63;5080529;28;20179;-57
2022/05/26 08:51:41;;;;;;;5.30;3.80;;;;;;;30.14;nan;-24649.50;5076471;28;20609;-57
2022/05/26 08:54:14;;;;;;;6.35;3.83;;;;;;;30.61;nan;-24662.16;5078102;28;20668;-57
2022/05/26 08:56:41;;;;;;;7.93;4.20;;;;;;;30.62;nan;-24662.31;5077253;28;20192;-57
2022/05/26 08:59:11;;;;;;;6.68;4.22;;;;;;;30.39;nan;-24656.03;5074945;28;20683;-58
2022/05/26 09:01:38;;;;;;;6.30;4.10;;;;;;;30.79;nan;-24666.94;5076699;28;20672;-57
2022/05/26 09:04:04;;;;;;;5.32;3.85;;;;;;;30.82;nan;-24667.75;5076718;28;20239;-58
2022/05/26 09:12:55;;;;;;;6.55;4.00;;;;;;;30.75;nan;-24665.72;5075112;28;20197;-58
2022/05/26 09:14:52;;;;;;;5.70;3.70;;;;;;;30.90;nan;-24669.78;5078514;28;20578;-58
2022/05/26 09:17:18;;;;;;;6.60;3.92;;;;;;;30.66;nan;-24663.53;5080661;28;20173;-58
2022/05/26 09:19:43;;;;;;;13.10;3.67;;;;;;;30.60;nan;-24661.91;5073832;28;20243;-58
2022/05/26 09:22:29;;;;;;;10.52;3.92;;;;;;;30.74;nan;-24665.44;5078613;28;20250;-57
2022/05/26 09:24:56;;;;;;;5.47;3.88;;;;;;;31.20;nan;-24677.97;5072988;28;20185;-58
2022/05/26 09:27:37;;;;;;;7.32;4.00;;;;;;;31.40;nan;-24683.28;5075983;28;20180;-57
2022/05/26 09:30:19;;;;;;;8.32;3.40;;;;;;;31.52;nan;-24686.66;5075257;28;20177;-57
2022/05/26 09:32:45;;;;;;;4.43;2.70;;;;;;;31.62;nan;-24689.13;5075606;28;20184;-57
2022/05/26 09:35:25;;;;;;;6.07;2.67;;;;;;;31.37;nan;-24682.59;5078208;28;20176;-60
2022/05/26 09:37:57;;;;;;;4.55;2.78;;;;;;;31.51;nan;-24686.25;5074659;28;20188;-57
2022/05/26 09:40:25;;;;;;;6.75;3.00;;;;;;;31.46;nan;-24685.03;5074096;28;20185;-57
2022/05/26 09:43:21;;;;;;;3.92;2.75;;;;;;;31.63;nan;-24689.53;5078865;28;20192;-57
2022/05/26 09:45:49;;;;;;;5.15;2.72;;;;;;;31.34;nan;-24681.63;5080562;28;20264;-57
2022/05/26 09:48:26;;;;;;;3.20;2.50;;;;;;;31.53;nan;-24686.94;5078884;28;20180;-57
2022/05/26 09:51:12;;;;;;;6.22;2.90;;;;;;;31.69;nan;-24691.16;5077605;28;20173;-57
2022/05/26 09:53:44;;;;;;;4.60;3.05;;;;;;;31.55;nan;-24687.50;5065887;28;20294;-57
2022/05/26 09:56:28;;;;;;;5.72;2.97;;;;;;;31.66;nan;-24690.22;5074701;28;20229;-57
2022/05/26 09:58:53;;;;;;;5.72;2.72;;;;;;;31.41;nan;-24683.69;5076217;28;20267;-57
2022/05/26 10:01:27;;;;;;;7.43;3.80;;;;;;;31.63;nan;-24689.41;5117488;27;20795;-57
2022/05/26 10:04:08;;;;;;;6.28;3.40;;;;;;;31.67;nan;-24690.63;5074080;28;20177;-57
2022/05/26 10:06:40;;;;;;;4.70;3.00;;;;;;;31.57;nan;-24687.91;5074233;28;20189;-57
2022/05/26 10:09:17;;;;;;;6.85;2.97;;;;;;;31.71;nan;-24691.69;5074621;28;20169;-58
2022/05/26 10:11:58;;;;;;;6.60;3.03;;;;;;;31.78;nan;-24693.59;5072540;28;20660;-57
2022/05/26 10:14:51;;;;;;;5.28;2.97;;;;;;;31.65;nan;-24689.94;5078079;28;20165;-58
2022/05/26 10:17:20;;;;;;;8.70;3.10;;;;;;;31.91;nan;-24697.13;5074004;28;20175;-58
2022/05/26 10:19:51;;;;;;;5.25;2.60;;;;;;;31.87;nan;-24696.03;5073887;28;20208;-57
2022/05/26 10:22:23;;;;;;;10.15;3.20;;;;;;;31.72;nan;-24691.97;5074294;28;20250;-58
2022/05/26 10:25:04;;;;;;;8.85;3.78;;;;;;;31.88;nan;-24696.19;5078523;28;20196;-58
2022/05/26 10:27:52;;;;;;;4.45;3.00;;;;;;;31.82;nan;-24694.56;5073851;28;20673;-57
2022/05/26 10:30:56;;;;;;;5.78;3.00;;;;;;;32.09;nan;-24701.75;5074909;28;20185;-57
2022/05/26 10:34:05;;;;;;;4.85;3.08;;;;;;;31.89;nan;-24696.47;5066681;28;20196;-57
2022/05/26 10:36:48;;;;;;;5.25;3.08;;;;;;;31.92;nan;-24697.28;5018534;28;20194;-57
2022/05/26 10:39:35;;;;;;;5.50;3.17;;;;;;;31.97;nan;-24698.75;5031048;28;20255;-57
2022/05/26 10:42:05;;;;;;;5.30;3.40;;;;;;;32.00;nan;-24699.44;5064333;28;20196;-56
2022/05/26 10:44:42;;;;;;;4.63;3.00;;;;;;;32.30;nan;-24707.59;5073237;28;20552;-56
2022/05/26 10:47:16;;;;;;;4.50;2.92;;;;;;;32.35;nan;-24708.94;5075862;28;20541;-57
2022/05/26 10:49:42;;;;;;;4.97;3.03;;;;;;;32.41;nan;-24710.44;5077030;28;20585;-56
2022/05/26 10:52:15;;;;;;;5.13;3.28;;;;;;;32.24;nan;-24705.81;5074864;28;20688;-56
2022/05/26 10:55:07;;;;;;;6.13;3.15;;;;;;;32.34;nan;-24708.69;5078611;28;20662;-57
2022/05/26 10:57:50;;;;;;;4.78;3.08;;;;;;;32.40;nan;-24710.31;5078334;28;20181;-57
2022/05/26 11:00:23;;;;;;;6.25;3.53;;;;;;;32.44;nan;-24711.25;5079522;28;20258;-58
2022/05/26 11:03:19;;;;;;;7.35;3.50;;;;;;;32.73;nan;-24719.00;5074576;28;20181;-57
2022/05/26 11:05:48;;;;;;;6.35;3.35;;;;;;;32.43;nan;-24710.97;5079823;28;20183;-57
2022/05/26 11:08:54;;;;;;;8.40;3.30;;;;;;;32.58;nan;-24715.06;5077066;28;20177;-59
2022/05/26 11:11:40;;;;;;;3.80;3.25;;;;;;;32.63;nan;-24716.28;5080832;28;20326;-58
2022/05/26 11:17:21;;;;;;;4.32;3.30;;;;;;;32.31;nan;-24707.88;5079296;28;20180;-58
2022/05/26 11:19:55;;;;;;;4.35;3.15;;;;;;;32.71;nan;-24718.44;5072894;28;20221;-57
2022/05/26 11:22:21;;;;;;;7.65;3.55;;;;;;;32.65;nan;-24716.97;5076247;28;20187;-58
2022/05/26 11:24:51;;;;;;;5.30;3.65;;;;;;;32.33;nan;-24708.28;5077717;28;20177;-57
2022/05/26 11:27:45;;;;;;;8.52;3.63;;;;;;;33.12;nan;-24729.56;5072395;28;20196;-57
2022/05/26 11:38:35;;;;;;;6.93;4.00;;;;;;;33.18;nan;-24731.19;5073714;28;20349;-57
2022/05/26 11:41:00;;;;;;;4.28;3.20;;;;;;;33.28;nan;-24733.75;5075860;28;20177;-58
2022/05/26 11:43:37;;;;;;;7.55;3.22;;;;;;;32.83;nan;-24721.69;5074485;28;20679;-57
2022/05/26 11:46:02;;;;;;;6.10;3.33;;;;;;;32.79;nan;-24720.75;5074694;28;20177;-57
2022/05/26 11:48:30;;;;;;;4.88;2.80;;;;;;;33.00;nan;-24726.31;5075450;28;20189;-57
2022/05/26 11:50:57;;;;;;;8.90;3.03;;;;;;;32.87;nan;-24722.78;5077273;28;20201;-57
2022/05/26 11:53:32;;;;;;;4.03;2.88;;;;;;;32.99;nan;-24726.03;5076863;28;20322;-58
2022/05/26 11:56:22;;;;;;;3.95;3.17;;;;;;;32.77;nan;-24720.06;5075210;28;20715;-58
2022/05/26 11:59:20;;;;;;;8.15;3.10;;;;;;;32.96;nan;-24725.09;5069338;28;20270;-58
2022/05/26 12:02:16;;;;;;;5.38;3.05;;;;;;;33.09;nan;-24728.75;5073147;28;20706;-56
2022/05/26 12:04:45;;;;;;;6.97;3.35;;;;;;;32.89;nan;-24723.31;5073063;28;20200;-57
2022/05/26 12:07:22;;;;;;;4.70;2.97;;;;;;;33.14;nan;-24730.09;5075596;28;20757;-58
2022/05/26 12:09:53;;;;;;;4.47;2.78;;;;;;;32.68;nan;-24717.78;5074580;28;20238;-58
2022/05/26 12:12:21;;;;;;;10.57;3.17;;;;;;;32.96;nan;-24725.09;5073370;28;20181;-58
2022/05/26 12:14:47;;;;;;;10.02;3.17;;;;;;;32.75;nan;-24719.66;5072891;28;20189;-57
2022/05/26 12:17:30;;;;;;;4.65;3.13;;;;;;;32.83;nan;-24721.84;5070744;28;20219;-57
2022/05/26 12:20:25;;;;;;;5.35;3.17;;;;;;;32.69;nan;-24718.03;5075963;28;20284;-57
2022/05/26 12:22:50;;;;;;;4.35;3.03;;;;;;;32.74;nan;-24719.41;5070780;28;20255;-59
2022/05/26 12:25:19;;;;;;;3.75;2.75;;;;;;;32.85;nan;-24722.25;5076215;28;20189;-58
2022/05/26 12:28:15;;;;;;;7.20;3.17;;;;;;;32.80;nan;-24720.88;5073035;28;20181;-58
2022/05/26 12:30:44;;;;;;;5.13;3.10;;;;;;;32.76;nan;-24719.94;5071236;28;20554;-57
2022/05/26 12:33:18;;;;;;;6.47;3.55;;;;;;;32.83;nan;-24721.69;5071383;28;20176;-57
2022/05/26 12:36:21;;;;;;;5.30;3.22;;;;;;;32.86;nan;-24722.50;5073516;28;20514;-57